Time;durP1;ratioP1;P1;durP2;ratioP2;P2;SDS_P1;SDS_P2;PMS_P1;PMS_P2;Temp;Humidity;BMP_temperature;BMP_pressure;BME280_temperature;BME280_humidity;BME280_pressure;Samples;Min_cycle;Max_cycle;Signal;HPM_P1;HPM_P2
2023/01/29 00:00:53;;;;;;;20.87;13.80;;;3.50;99.90;;;;;;5033361;28;21066;-60
2023/01/29 00:03:21;;;;;;;21.50;13.67;;;3.50;99.90;;;;;;5033573;28;20489;-59
2023/01/29 00:05:51;;;;;;;19.70;13.60;;;3.50;99.90;;;;;;5045690;28;20472;-60
2023/01/29 00:08:19;;;;;;;16.63;12.33;;;3.40;99.90;;;;;;5045907;28;20568;-59
2023/01/29 00:10:47;;;;;;;18.70;12.37;;;3.50;99.90;;;;;;5053796;28;20472;-59
2023/01/29 00:13:15;;;;;;;18.53;12.73;;;3.50;99.90;;;;;;5053708;28;20462;-60
2023/01/29 00:15:52;;;;;;;17.17;11.97;;;3.40;99.90;;;;;;5053586;28;20799;-60
2023/01/29 00:18:21;;;;;;;18.17;11.83;;;3.30;99.90;;;;;;5040378;28;20484;-60
2023/01/29 00:20:49;;;;;;;18.53;13.07;;;3.40;99.90;;;;;;5033720;28;20826;-60
2023/01/29 00:23:19;;;;;;;20.67;12.60;;;3.40;99.90;;;;;;5033842;28;20484;-59
2023/01/29 00:25:48;;;;;;;17.17;12.33;;;3.50;99.90;;;;;;5033323;28;20458;-59
2023/01/29 00:28:16;;;;;;;15.17;11.47;;;3.50;99.90;;;;;;5033390;28;20467;-60
2023/01/29 00:30:44;;;;;;;17.43;12.47;;;3.50;99.90;;;;;;5033064;28;20475;-59
2023/01/29 00:33:12;;;;;;;17.30;12.47;;;3.60;99.90;;;;;;5033656;28;20474;-59
2023/01/29 00:35:41;;;;;;;17.17;11.57;;;3.50;99.90;;;;;;5041026;28;20465;-59
2023/01/29 00:38:09;;;;;;;16.77;11.13;;;3.50;99.90;;;;;;5036813;28;20489;-59
2023/01/29 00:46:11;;;;;;;16.10;10.80;;;3.50;99.90;;;;;;5012351;28;21030;-60
2023/01/29 00:48:39;;;;;;;19.77;11.50;;;3.60;99.90;;;;;;5011936;28;20471;-59
2023/01/29 00:51:07;;;;;;;16.00;11.73;;;3.60;99.90;;;;;;5013408;28;20474;-59
2023/01/29 00:53:35;;;;;;;15.17;10.10;;;3.50;99.90;;;;;;5013079;28;20465;-60
2023/01/29 00:56:05;;;;;;;17.27;12.60;;;3.50;99.90;;;;;;5031190;28;20821;-59
2023/01/29 00:58:34;;;;;;;16.50;12.17;;;3.50;99.90;;;;;;5032713;28;20471;-60
2023/01/29 01:01:02;;;;;;;16.47;10.60;;;3.50;99.90;;;;;;5032298;28;20480;-60
2023/01/29 01:03:34;;;;;;;17.97;12.30;;;3.50;99.90;;;;;;5032867;28;20471;-60
2023/01/29 01:06:06;;;;;;;18.00;11.57;;;3.50;99.90;;;;;;5041002;28;20531;-60
2023/01/29 01:11:21;;;;;;;18.50;11.67;;;3.60;99.90;;;;;;5052679;28;20493;-60
2023/01/29 01:13:50;;;;;;;20.90;12.73;;;3.50;99.90;;;;;;5053234;28;20450;-59
2023/01/29 01:16:19;;;;;;;19.50;11.57;;;3.50;99.90;;;;;;5053030;28;20986;-60
2023/01/29 01:18:48;;;;;;;16.20;11.17;;;3.50;99.90;;;;;;5032706;28;20487;-60
2023/01/29 01:21:17;;;;;;;15.27;11.03;;;3.60;99.90;;;;;;5037176;28;20524;-59
2023/01/29 01:23:45;;;;;;;17.90;11.73;;;3.50;99.90;;;;;;5036866;28;20460;-59
2023/01/29 01:26:14;;;;;;;17.87;10.90;;;3.60;99.90;;;;;;5036562;28;20479;-60
2023/01/29 01:28:43;;;;;;;21.13;12.17;;;3.50;99.90;;;;;;5036415;28;20464;-59
2023/01/29 01:31:12;;;;;;;15.67;11.13;;;3.50;99.90;;;;;;5036294;28;20467;-59
2023/01/29 01:33:40;;;;;;;14.57;11.33;;;3.60;99.90;;;;;;5035092;28;20988;-60
2023/01/29 01:36:09;;;;;;;17.10;11.77;;;3.60;99.90;;;;;;5043455;28;20827;-59
2023/01/29 01:38:43;;;;;;;16.63;10.83;;;3.50;99.90;;;;;;5050630;28;20475;-59
2023/01/29 01:41:12;;;;;;;19.17;12.03;;;3.60;99.90;;;;;;5057001;28;20991;-59
2023/01/29 01:43:50;;;;;;;18.60;10.87;;;3.70;99.90;;;;;;5056626;28;20466;-60
2023/01/29 01:46:20;;;;;;;16.70;11.10;;;3.70;99.90;;;;;;5057057;28;20959;-59
2023/01/29 01:48:52;;;;;;;15.23;11.33;;;3.70;99.90;;;;;;5019503;28;20454;-59
2023/01/29 01:51:21;;;;;;;15.10;10.70;;;3.60;99.90;;;;;;5015139;28;20473;-59
2023/01/29 01:53:55;;;;;;;16.50;10.73;;;3.60;99.90;;;;;;5031783;28;20478;-60
2023/01/29 01:56:27;;;;;;;17.73;11.70;;;3.60;99.90;;;;;;5029941;28;20462;-59
2023/01/29 01:58:58;;;;;;;16.33;10.73;;;3.60;99.90;;;;;;5036269;28;20972;-60
2023/01/29 02:01:27;;;;;;;15.33;10.50;;;3.50;99.90;;;;;;5035170;28;20882;-60
2023/01/29 02:09:36;;;;;;;16.13;10.83;;;3.60;99.90;;;;;;5054498;28;20466;-59
2023/01/29 02:12:07;;;;;;;16.83;10.60;;;3.60;99.90;;;;;;5056093;28;20548;-59
2023/01/29 02:14:39;;;;;;;13.90;10.57;;;3.60;99.90;;;;;;5054429;28;20473;-60
2023/01/29 02:17:10;;;;;;;17.47;10.87;;;3.60;99.90;;;;;;5047826;28;20475;-60
2023/01/29 02:19:46;;;;;;;17.13;10.77;;;3.60;99.90;;;;;;5035571;28;20510;-60
2023/01/29 02:22:53;;;;;;;16.03;10.87;;;3.50;99.90;;;;;;5035721;28;20460;-60
2023/01/29 02:25:48;;;;;;;18.63;10.43;;;3.50;99.90;;;;;;5035046;28;20462;-59
2023/01/29 02:28:26;;;;;;;15.53;10.70;;;3.60;99.90;;;;;;5028631;28;20476;-59
2023/01/29 02:31:02;;;;;;;13.80;10.33;;;3.70;99.90;;;;;;5034533;28;20475;-60
2023/01/29 02:33:40;;;;;;;15.77;10.77;;;3.60;99.90;;;;;;5035310;28;20463;-59
2023/01/29 02:36:19;;;;;;;17.13;10.40;;;3.60;99.90;;;;;;5044708;28;21018;-59
2023/01/29 02:38:59;;;;;;;16.67;11.20;;;3.60;99.90;;;;;;5050905;28;20458;-59
2023/01/29 02:41:31;;;;;;;16.37;10.97;;;3.60;99.90;;;;;;5054028;28;20466;-60
2023/01/29 02:44:07;;;;;;;17.33;11.30;;;3.60;99.90;;;;;;5054088;28;20478;-59
2023/01/29 02:46:41;;;;;;;18.23;10.93;;;3.70;99.90;;;;;;5049401;28;20480;-60
2023/01/29 02:49:17;;;;;;;16.67;11.10;;;3.60;99.90;;;;;;5015505;28;20982;-59
2023/01/29 02:51:57;;;;;;;17.63;10.70;;;3.60;99.90;;;;;;5016652;28;20475;-59
2023/01/29 02:54:32;;;;;;;16.40;10.57;;;3.60;99.90;;;;;;5019953;28;20860;-59
2023/01/29 02:57:04;;;;;;;13.90;10.63;;;3.60;99.90;;;;;;5035075;28;20486;-60
2023/01/29 02:59:38;;;;;;;14.97;10.40;;;3.70;99.90;;;;;;5033449;28;20485;-60
2023/01/29 03:02:15;;;;;;;16.63;10.47;;;3.60;99.90;;;;;;5029821;28;20566;-59
2023/01/29 03:04:49;;;;;;;16.43;10.53;;;3.70;99.90;;;;;;5046299;28;20496;-59
2023/01/29 03:10:09;;;;;;;18.00;11.53;;;3.70;99.90;;;;;;5033230;28;20498;-59
2023/01/29 03:12:41;;;;;;;15.70;10.93;;;3.70;99.90;;;;;;5034595;28;20847;-59
2023/01/29 03:15:16;;;;;;;19.37;11.60;;;3.60;99.90;;;;;;5034837;28;20470;-60
2023/01/29 03:18:06;;;;;;;17.10;11.07;;;3.70;99.90;;;;;;5024566;28;20573;-59
2023/01/29 03:20:39;;;;;;;15.30;10.57;;;3.70;99.90;;;;;;5034480;28;20520;-59
2023/01/29 03:23:15;;;;;;;16.50;10.50;;;3.60;99.90;;;;;;5034816;28;20870;-59
2023/01/29 03:34:17;;;;;;;17.30;11.20;;;3.90;99.90;;;;;;5034179;28;20458;-59
2023/01/29 03:36:54;;;;;;;16.53;11.43;;;3.90;99.90;;;;;;5044197;28;20471;-60
2023/01/29 03:39:27;;;;;;;16.00;11.67;;;3.90;99.90;;;;;;5041406;28;20500;-60
2023/01/29 03:42:02;;;;;;;14.97;11.37;;;3.70;99.90;;;;;;5012365;28;21200;-60
2023/01/29 03:44:43;;;;;;;14.23;10.40;;;3.80;99.90;;;;;;5013047;28;20978;-60
2023/01/29 03:47:26;;;;;;;18.43;12.13;;;3.80;99.90;;;;;;5013022;28;20479;-60
2023/01/29 03:49:59;;;;;;;17.47;11.70;;;3.70;99.90;;;;;;5013056;28;20479;-60
2023/01/29 03:52:35;;;;;;;18.40;12.33;;;3.70;99.90;;;;;;5027445;28;20472;-59
2023/01/29 03:55:10;;;;;;;16.20;11.40;;;3.70;99.90;;;;;;5035106;28;20474;-59
2023/01/29 03:57:44;;;;;;;13.80;10.17;;;3.80;99.90;;;;;;5032069;28;20573;-60
2023/01/29 04:00:18;;;;;;;19.60;11.67;;;3.90;99.90;;;;;;5032007;28;20502;-60
2023/01/29 04:03:14;;;;;;;18.40;12.07;;;4.00;99.90;;;;;;5033194;28;21042;-59
2023/01/29 04:05:47;;;;;;;15.67;11.53;;;4.00;99.90;;;;;;5044471;28;20469;-60
2023/01/29 04:08:27;;;;;;;18.57;12.67;;;3.90;99.90;;;;;;5013574;28;20571;-60
2023/01/29 04:10:58;;;;;;;14.23;10.60;;;3.80;99.90;;;;;;5013982;28;20464;-59
2023/01/29 04:13:29;;;;;;;18.73;11.53;;;3.80;99.90;;;;;;5012814;28;20476;-59
2023/01/29 04:16:00;;;;;;;17.93;12.10;;;3.70;99.90;;;;;;5014181;28;20472;-59
2023/01/29 04:18:54;;;;;;;18.70;12.13;;;3.70;99.90;;;;;;5012575;28;20995;-60
2023/01/29 04:21:28;;;;;;;16.83;11.70;;;3.70;99.90;;;;;;5012213;28;21056;-59
2023/01/29 04:23:56;;;;;;;18.87;11.50;;;3.60;99.90;;;;;;5014583;28;20465;-59
2023/01/29 04:26:42;;;;;;;14.30;10.70;;;3.60;99.90;;;;;;5033289;28;20607;-60
2023/01/29 04:29:21;;;;;;;18.10;11.73;;;3.80;99.90;;;;;;5013544;28;20468;-60
2023/01/29 04:32:03;;;;;;;15.97;11.97;;;3.70;99.90;;;;;;5022969;28;20475;-59
2023/01/29 04:34:45;;;;;;;19.13;12.33;;;3.60;99.90;;;;;;5048962;28;20472;-59
2023/01/29 04:37:22;;;;;;;17.43;12.07;;;3.60;99.90;;;;;;5029852;28;20840;-60
2023/01/29 04:39:56;;;;;;;17.87;12.33;;;3.60;99.90;;;;;;5012120;28;20558;-59
2023/01/29 04:42:30;;;;;;;17.30;11.83;;;3.60;99.90;;;;;;5013628;28;20474;-60
2023/01/29 04:45:03;;;;;;;14.77;10.83;;;3.50;99.90;;;;;;5013661;28;20467;-59
2023/01/29 04:47:40;;;;;;;18.20;12.60;;;3.60;99.90;;;;;;5013394;28;20456;-59
2023/01/29 04:50:17;;;;;;;17.53;12.10;;;3.50;99.90;;;;;;5013307;28;20464;-60
2023/01/29 04:52:51;;;;;;;18.03;12.53;;;3.50;99.90;;;;;;5012911;28;20509;-59
2023/01/29 04:55:29;;;;;;;17.07;12.90;;;3.50;99.90;;;;;;5025511;28;20465;-60
2023/01/29 04:58:06;;;;;;;16.90;12.33;;;3.50;99.90;;;;;;5032403;28;20467;-59
2023/01/29 05:00:39;;;;;;;17.67;12.13;;;3.50;99.90;;;;;;5030970;28;20485;-60
2023/01/29 05:03:08;;;;;;;18.47;12.90;;;3.50;99.90;;;;;;5032807;28;20490;-59
2023/01/29 05:05:41;;;;;;;16.93;12.30;;;3.50;99.90;;;;;;5044412;28;20488;-59
2023/01/29 05:08:13;;;;;;;15.30;11.73;;;3.50;99.90;;;;;;5017659;28;20471;-59
2023/01/29 05:10:42;;;;;;;17.20;11.57;;;3.50;99.90;;;;;;5013353;28;20465;-60
2023/01/29 05:13:13;;;;;;;16.37;11.43;;;3.50;99.90;;;;;;5013429;28;20861;-59
2023/01/29 05:15:46;;;;;;;17.90;12.23;;;3.50;99.90;;;;;;5013151;28;20482;-60
2023/01/29 05:18:14;;;;;;;15.50;10.77;;;3.50;99.90;;;;;;5013536;28;20974;-60
2023/01/29 05:20:44;;;;;;;16.80;11.87;;;3.60;99.90;;;;;;5013277;28;20484;-59
2023/01/29 05:23:16;;;;;;;16.03;11.37;;;3.60;99.90;;;;;;5025077;28;20466;-60
2023/01/29 05:25:45;;;;;;;18.00;12.50;;;3.70;99.90;;;;;;5032606;28;20484;-59
2023/01/29 05:28:15;;;;;;;18.50;12.43;;;3.60;99.90;;;;;;5032841;28;20557;-59
2023/01/29 05:30:45;;;;;;;17.03;11.33;;;3.60;99.90;;;;;;5032510;28;20512;-59
2023/01/29 05:33:16;;;;;;;15.87;11.50;;;3.70;99.90;;;;;;5025094;28;20531;-60
2023/01/29 05:35:46;;;;;;;16.57;12.43;;;3.80;99.90;;;;;;5044813;28;20830;-60
2023/01/29 05:38:14;;;;;;;16.90;12.50;;;3.80;99.90;;;;;;5045371;28;20454;-59
2023/01/29 05:40:43;;;;;;;16.10;11.93;;;3.80;99.90;;;;;;5052359;28;20482;-59
2023/01/29 05:43:16;;;;;;;15.77;11.73;;;3.80;99.90;;;;;;5047956;28;20453;-59
2023/01/29 05:45:52;;;;;;;18.17;12.90;;;3.70;99.90;;;;;;5031701;28;20481;-60
2023/01/29 05:48:20;;;;;;;15.87;11.70;;;3.80;99.90;;;;;;5033075;28;20833;-59
2023/01/29 05:50:49;;;;;;;17.43;12.67;;;3.60;99.90;;;;;;5032943;28;20474;-58
2023/01/29 05:53:17;;;;;;;16.20;12.00;;;3.80;99.90;;;;;;5030098;28;20484;-59
2023/01/29 05:55:46;;;;;;;16.17;11.20;;;3.90;99.90;;;;;;5028530;28;20480;-59
2023/01/29 05:58:14;;;;;;;16.67;12.03;;;3.70;99.90;;;;;;5032937;28;20468;-59
2023/01/29 06:00:42;;;;;;;16.80;11.70;;;3.70;99.90;;;;;;5030537;28;20479;-60
2023/01/29 06:03:11;;;;;;;15.83;11.20;;;3.60;99.90;;;;;;5024011;28;20481;-59
2023/01/29 06:05:40;;;;;;;17.50;12.60;;;3.60;99.90;;;;;;5031076;28;20528;-59
2023/01/29 06:08:10;;;;;;;20.33;12.80;;;3.60;99.90;;;;;;5033879;28;20461;-59
2023/01/29 06:10:38;;;;;;;15.50;11.73;;;3.70;99.90;;;;;;5026582;28;20478;-60
2023/01/29 06:13:06;;;;;;;18.17;12.47;;;3.70;99.90;;;;;;5024240;28;20469;-59
2023/01/29 06:15:34;;;;;;;19.80;13.37;;;3.70;99.90;;;;;;5028561;28;20468;-60
2023/01/29 06:18:02;;;;;;;17.93;13.20;;;3.70;99.90;;;;;;5036151;28;20462;-59
2023/01/29 06:20:30;;;;;;;19.60;13.27;;;3.70;99.90;;;;;;5036037;28;20991;-59
2023/01/29 06:22:59;;;;;;;19.47;14.20;;;3.70;99.90;;;;;;5035748;28;21012;-59
2023/01/29 06:25:28;;;;;;;17.80;12.27;;;3.70;99.90;;;;;;5021496;28;20465;-59
2023/01/29 06:27:56;;;;;;;21.03;14.80;;;3.70;99.90;;;;;;5033761;28;20861;-59
2023/01/29 06:30:27;;;;;;;17.47;13.40;;;3.70;99.90;;;;;;5015430;28;20479;-59
2023/01/29 06:32:57;;;;;;;17.67;13.07;;;3.60;99.90;;;;;;5031141;28;20468;-59
2023/01/29 06:35:25;;;;;;;19.60;14.33;;;3.60;99.90;;;;;;5041173;28;20488;-59
2023/01/29 06:37:54;;;;;;;20.33;14.23;;;3.60;99.90;;;;;;5042640;28;20474;-59
2023/01/29 06:40:22;;;;;;;20.37;14.80;;;3.50;99.90;;;;;;5021144;28;20959;-60
2023/01/29 06:42:51;;;;;;;19.67;14.20;;;3.50;99.90;;;;;;5015533;28;20496;-59
2023/01/29 06:45:19;;;;;;;20.73;14.63;;;3.40;99.90;;;;;;5015908;28;21019;-59
2023/01/29 06:47:47;;;;;;;19.03;14.47;;;3.50;99.90;;;;;;5015704;28;20478;-59
2023/01/29 06:50:15;;;;;;;19.93;14.27;;;3.50;99.90;;;;;;5018183;28;20989;-59
2023/01/29 06:52:44;;;;;;;22.73;15.43;;;3.50;99.90;;;;;;5017192;28;20560;-59
2023/01/29 06:55:12;;;;;;;23.23;15.70;;;3.40;99.90;;;;;;5026584;28;20986;-59
2023/01/29 06:57:40;;;;;;;21.33;15.63;;;3.40;99.90;;;;;;5035190;28;20481;-60
2023/01/29 07:00:11;;;;;;;21.37;15.57;;;3.40;99.90;;;;;;5034214;28;20468;-60
2023/01/29 07:02:39;;;;;;;21.23;15.67;;;3.40;99.90;;;;;;5033242;28;20486;-59
2023/01/29 07:05:07;;;;;;;23.80;17.00;;;3.40;99.90;;;;;;5033705;28;20527;-59
2023/01/29 07:07:36;;;;;;;24.07;17.03;;;3.30;99.90;;;;;;5046185;28;20469;-60
2023/01/29 07:10:05;;;;;;;24.30;17.70;;;3.40;99.90;;;;;;5054744;28;20462;-60
2023/01/29 07:12:33;;;;;;;20.87;15.87;;;3.30;99.90;;;;;;5033956;28;20468;-59
2023/01/29 07:15:01;;;;;;;25.30;17.17;;;3.30;99.90;;;;;;5034750;28;20476;-59
2023/01/29 07:17:30;;;;;;;23.90;16.70;;;3.30;99.90;;;;;;5016719;28;20956;-60
2023/01/29 07:19:58;;;;;;;23.10;17.30;;;3.30;99.90;;;;;;5015151;28;20992;-59
2023/01/29 07:22:26;;;;;;;24.43;18.63;;;3.30;99.90;;;;;;5028288;28;20514;-60
2023/01/29 07:24:54;;;;;;;20.87;16.50;;;3.20;99.90;;;;;;5034788;28;20466;-59
2023/01/29 07:27:22;;;;;;;25.67;18.77;;;3.30;99.90;;;;;;5034751;28;20514;-59
2023/01/29 07:29:50;;;;;;;28.80;20.17;;;3.20;99.90;;;;;;5034228;28;20456;-60
2023/01/29 07:32:18;;;;;;;25.47;19.27;;;3.20;99.90;;;;;;5033356;28;20477;-59
2023/01/29 07:34:48;;;;;;;27.93;19.67;;;3.10;99.90;;;;;;5037904;28;20852;-59
2023/01/29 07:37:16;;;;;;;28.63;19.93;;;3.30;99.90;;;;;;5046157;28;20458;-59
2023/01/29 07:39:45;;;;;;;26.67;19.90;;;3.30;99.90;;;;;;5042164;28;20482;-60
2023/01/29 07:42:13;;;;;;;33.27;20.80;;;3.40;99.90;;;;;;5039933;28;21040;-59
2023/01/29 07:44:41;;;;;;;28.13;20.30;;;3.30;99.90;;;;;;5046234;28;20481;-60
2023/01/29 07:47:09;;;;;;;32.10;21.77;;;3.40;99.90;;;;;;5026985;28;20472;-59
2023/01/29 07:49:37;;;;;;;30.30;21.67;;;3.40;99.90;;;;;;5020393;28;20476;-60
2023/01/29 07:52:07;;;;;;;27.97;21.10;;;3.40;99.90;;;;;;5034268;28;20473;-59
2023/01/29 07:54:35;;;;;;;30.77;22.47;;;3.40;99.90;;;;;;5034275;28;20947;-60
2023/01/29 07:57:03;;;;;;;32.70;23.37;;;3.40;99.90;;;;;;5033590;28;20954;-60
2023/01/29 07:59:31;;;;;;;43.30;32.80;;;3.50;99.90;;;;;;5034047;28;20508;-59
2023/01/29 08:01:59;;;;;;;37.20;27.80;;;3.40;99.90;;;;;;5033132;28;20471;-60
2023/01/29 08:04:27;;;;;;;33.57;24.57;;;3.40;99.90;;;;;;5033943;28;20666;-59
2023/01/29 08:06:55;;;;;;;32.70;24.07;;;3.40;99.90;;;;;;5042882;28;20475;-60
2023/01/29 08:09:25;;;;;;;31.03;23.50;;;3.50;99.90;;;;;;5045382;28;20462;-59
2023/01/29 08:11:54;;;;;;;34.03;24.10;;;3.40;99.90;;;;;;5032870;28;20471;-60
2023/01/29 08:14:22;;;;;;;32.77;24.30;;;3.50;99.90;;;;;;5033638;28;20460;-59
2023/01/29 08:16:50;;;;;;;32.33;24.37;;;3.50;99.90;;;;;;5027078;28;20477;-59
2023/01/29 08:19:18;;;;;;;32.53;23.77;;;3.50;99.90;;;;;;5027488;28;20876;-60
2023/01/29 08:21:46;;;;;;;37.77;24.83;;;3.50;99.90;;;;;;5017589;28;20487;-60
2023/01/29 08:24:14;;;;;;;34.03;25.00;;;3.50;99.90;;;;;;5026530;28;20806;-59
2023/01/29 08:26:44;;;;;;;34.57;24.60;;;3.50;99.90;;;;;;5031987;28;20834;-59
2023/01/29 08:29:12;;;;;;;35.83;25.73;;;3.50;99.90;;;;;;5025290;28;20569;-59
2023/01/29 08:31:40;;;;;;;35.20;25.40;;;3.60;99.90;;;;;;5025260;28;20484;-59
2023/01/29 08:34:08;;;;;;;36.10;26.43;;;3.60;99.90;;;;;;5036164;28;20460;-59
2023/01/29 08:36:37;;;;;;;33.60;24.87;;;3.60;99.90;;;;;;5036040;28;20471;-59
2023/01/29 08:39:05;;;;;;;34.43;25.37;;;3.60;99.90;;;;;;5052623;28;20817;-59
2023/01/29 08:41:33;;;;;;;41.83;26.83;;;3.70;99.90;;;;;;5052857;28;20469;-59
2023/01/29 08:44:03;;;;;;;41.90;28.80;;;3.70;99.90;;;;;;5053311;28;20501;-59
2023/01/29 08:46:31;;;;;;;38.03;27.20;;;3.70;99.90;;;;;;5039704;28;21010;-59
2023/01/29 08:48:59;;;;;;;39.87;26.07;;;3.70;99.90;;;;;;5033115;28;20473;-59
2023/01/29 08:51:27;;;;;;;39.00;27.03;;;3.70;99.90;;;;;;5027121;28;20473;-59
2023/01/29 08:53:55;;;;;;;39.20;27.00;;;3.70;99.90;;;;;;5033484;28;20975;-59
2023/01/29 08:56:23;;;;;;;36.63;26.43;;;3.70;99.90;;;;;;5032661;28;20465;-59
2023/01/29 08:58:51;;;;;;;46.40;29.43;;;3.70;99.90;;;;;;5033037;28;20474;-65
2023/01/29 09:01:21;;;;;;;41.00;27.60;;;3.80;99.90;;;;;;5032442;28;20483;-62
2023/01/29 09:03:51;;;;;;;39.83;27.57;;;4.00;99.90;;;;;;5025956;28;20493;-62
2023/01/29 09:06:19;;;;;;;39.73;28.93;;;3.80;99.90;;;;;;5050392;28;20600;-62
2023/01/29 09:08:48;;;;;;;37.20;26.37;;;3.80;99.90;;;;;;5035842;28;20530;-62
2023/01/29 09:11:16;;;;;;;38.87;28.27;;;3.70;99.90;;;;;;5028209;28;20981;-62
2023/01/29 09:13:44;;;;;;;39.70;28.40;;;3.70;99.90;;;;;;5033130;28;20464;-62
2023/01/29 09:16:12;;;;;;;45.40;30.47;;;3.80;99.90;;;;;;5032994;28;20474;-63
2023/01/29 09:18:42;;;;;;;41.87;27.97;;;3.80;99.90;;;;;;5033325;28;20507;-62
2023/01/29 09:21:10;;;;;;;37.27;26.63;;;3.80;99.90;;;;;;5028892;28;20481;-62
2023/01/29 09:23:38;;;;;;;40.53;27.50;;;3.80;99.90;;;;;;5044156;28;20850;-62
2023/01/29 09:26:07;;;;;;;38.50;26.50;;;3.80;99.90;;;;;;5052989;28;20469;-62
2023/01/29 09:28:36;;;;;;;38.13;26.97;;;3.80;99.90;;;;;;5037983;28;20498;-62
2023/01/29 09:31:04;;;;;;;40.20;27.40;;;3.80;99.90;;;;;;5026493;28;20832;-62
2023/01/29 09:33:32;;;;;;;36.83;26.63;;;3.80;99.90;;;;;;5029952;28;20472;-62
2023/01/29 09:36:02;;;;;;;37.00;26.60;;;3.80;99.90;;;;;;5045583;28;20477;-62
2023/01/29 09:38:31;;;;;;;39.00;26.77;;;3.80;99.90;;;;;;5048055;28;20465;-62
2023/01/29 09:41:08;;;;;;;40.50;28.50;;;3.90;99.90;;;;;;5056027;28;20477;-62
2023/01/29 09:43:45;;;;;;;38.00;27.83;;;3.90;99.90;;;;;;5037557;28;20484;-62
2023/01/29 09:46:20;;;;;;;39.00;27.10;;;3.90;99.90;;;;;;5036944;28;20461;-62
2023/01/29 09:48:52;;;;;;;38.50;26.60;;;3.90;99.90;;;;;;5025647;28;20469;-62
2023/01/29 09:51:27;;;;;;;35.60;26.83;;;3.90;99.90;;;;;;5044616;28;20816;-62
2023/01/29 09:54:04;;;;;;;38.63;27.23;;;3.90;99.90;;;;;;5031488;28;20792;-62
2023/01/29 09:56:32;;;;;;;36.70;26.57;;;4.00;99.90;;;;;;5025285;28;20467;-62
2023/01/29 09:59:00;;;;;;;38.50;27.90;;;4.00;99.90;;;;;;5016710;28;20485;-62
2023/01/29 10:01:34;;;;;;;37.90;28.10;;;4.00;99.90;;;;;;5030548;28;20482;-62
2023/01/29 10:04:17;;;;;;;40.67;28.77;;;4.00;99.90;;;;;;5029113;28;20566;-62
2023/01/29 10:07:01;;;;;;;42.13;30.53;;;3.90;99.90;;;;;;5031410;28;20875;-62
2023/01/29 10:09:54;;;;;;;38.47;28.30;;;4.00;99.90;;;;;;5026219;28;20458;-62
2023/01/29 10:12:36;;;;;;;38.43;28.57;;;4.00;99.90;;;;;;5023221;28;20479;-62
2023/01/29 10:15:18;;;;;;;40.80;29.73;;;4.00;99.90;;;;;;5026705;28;20459;-62
2023/01/29 10:18:17;;;;;;;39.63;27.37;;;4.00;99.90;;;;;;5026179;28;20480;-62
2023/01/29 10:20:57;;;;;;;36.83;27.13;;;4.00;99.90;;;;;;5030507;28;20501;-62
2023/01/29 10:23:30;;;;;;;43.27;28.53;;;4.00;99.90;;;;;;5025822;28;20988;-62
2023/01/29 10:26:01;;;;;;;40.97;29.53;;;4.00;99.90;;;;;;5025574;28;20516;-62
2023/01/29 10:28:34;;;;;;;42.43;28.87;;;4.00;99.90;;;;;;5025444;28;20470;-62
2023/01/29 10:31:07;;;;;;;40.80;29.40;;;4.00;99.90;;;;;;5028697;28;21001;-62
2023/01/29 10:33:40;;;;;;;39.23;28.67;;;4.00;99.90;;;;;;5027519;28;20472;-62
2023/01/29 10:36:34;;;;;;;41.57;29.50;;;4.00;99.90;;;;;;5031189;28;20456;-62
2023/01/29 10:39:03;;;;;;;39.27;28.60;;;4.00;99.90;;;;;;5030403;28;20574;-62
2023/01/29 10:41:47;;;;;;;40.87;29.50;;;4.10;99.90;;;;;;5030317;28;20467;-62
2023/01/29 10:44:27;;;;;;;40.10;28.87;;;4.10;99.90;;;;;;5026456;28;20497;-62
2023/01/29 10:47:12;;;;;;;38.90;28.77;;;4.10;99.90;;;;;;5026748;28;21577;-62
2023/01/29 10:49:54;;;;;;;45.10;30.73;;;4.00;99.90;;;;;;5024251;28;20470;-62
2023/01/29 10:52:35;;;;;;;44.47;30.43;;;4.00;99.90;;;;;;5024265;28;20460;-62
2023/01/29 10:55:19;;;;;;;43.70;29.93;;;4.10;99.90;;;;;;5024400;28;20471;-63
2023/01/29 10:58:01;;;;;;;42.03;30.23;;;4.10;99.90;;;;;;5023979;28;20465;-62
2023/01/29 11:00:36;;;;;;;42.57;30.07;;;4.10;99.90;;;;;;5025182;28;20463;-62
2023/01/29 11:03:15;;;;;;;40.83;29.60;;;4.10;99.90;;;;;;5028329;28;20481;-62
2023/01/29 11:06:01;;;;;;;42.73;29.73;;;4.10;99.90;;;;;;5030788;28;20558;-62
2023/01/29 11:08:34;;;;;;;40.80;29.80;;;4.10;99.90;;;;;;5027568;28;20457;-62
2023/01/29 11:11:08;;;;;;;42.50;29.27;;;4.10;99.90;;;;;;5029042;28;20494;-62
2023/01/29 11:13:42;;;;;;;39.43;29.13;;;4.20;99.90;;;;;;5032042;28;20493;-62
2023/01/29 11:16:11;;;;;;;40.93;27.90;;;4.20;99.90;;;;;;5016779;28;20477;-62
2023/01/29 11:18:54;;;;;;;37.53;27.83;;;4.20;99.90;;;;;;5034290;28;20558;-62
2023/01/29 11:21:24;;;;;;;39.73;26.83;;;4.20;99.90;;;;;;5015383;28;20462;-62
2023/01/29 11:24:06;;;;;;;36.87;27.63;;;4.30;99.90;;;;;;5031419;28;20833;-62
2023/01/29 11:26:39;;;;;;;38.67;27.80;;;4.20;99.90;;;;;;5018810;28;20464;-62
2023/01/29 11:29:32;;;;;;;35.30;27.67;;;4.20;99.90;;;;;;5026483;28;20470;-62
2023/01/29 11:32:03;;;;;;;37.30;26.13;;;4.30;99.90;;;;;;5034126;28;20474;-62
2023/01/29 11:34:31;;;;;;;34.80;26.97;;;4.30;99.90;;;;;;5044261;28;20995;-62
2023/01/29 11:37:01;;;;;;;33.33;24.63;;;4.30;99.90;;;;;;5042452;28;20463;-62
2023/01/29 11:39:30;;;;;;;35.33;25.63;;;4.30;99.90;;;;;;5039955;28;20467;-62
2023/01/29 11:42:02;;;;;;;36.73;25.17;;;4.40;99.90;;;;;;5029374;28;20460;-62
2023/01/29 11:44:33;;;;;;;34.00;24.33;;;4.30;99.90;;;;;;5026138;28;20486;-62
2023/01/29 11:47:12;;;;;;;36.50;25.57;;;4.30;99.90;;;;;;5035201;28;20488;-62
2023/01/29 11:49:46;;;;;;;34.00;24.87;;;4.40;99.90;;;;;;5034545;28;20473;-62
2023/01/29 11:52:17;;;;;;;35.53;25.97;;;4.30;99.90;;;;;;5037253;28;20827;-62
2023/01/29 11:54:48;;;;;;;35.53;25.13;;;4.30;99.90;;;;;;5034713;28;20475;-62
2023/01/29 11:57:28;;;;;;;33.50;24.87;;;4.30;99.90;;;;;;5034825;28;20981;-62
2023/01/29 12:00:00;;;;;;;34.57;25.13;;;4.30;99.90;;;;;;5034767;28;20613;-62
2023/01/29 12:02:37;;;;;;;36.27;25.70;;;4.40;99.90;;;;;;5027986;28;20475;-62
2023/01/29 12:05:15;;;;;;;36.60;26.67;;;4.40;99.90;;;;;;5041112;28;20507;-62
2023/01/29 12:07:46;;;;;;;36.60;26.43;;;4.40;99.90;;;;;;5051076;28;20468;-62
2023/01/29 12:10:30;;;;;;;38.17;26.30;;;4.40;99.90;;;;;;5032307;28;20475;-62
2023/01/29 12:13:07;;;;;;;34.10;25.33;;;4.30;99.90;;;;;;5043236;28;20474;-62
2023/01/29 12:15:36;;;;;;;30.33;23.80;;;4.40;99.90;;;;;;5053621;28;20461;-62
2023/01/29 12:18:13;;;;;;;35.03;25.37;;;4.50;99.90;;;;;;5053970;28;20892;-62
2023/01/29 12:20:43;;;;;;;32.13;25.50;;;4.40;99.90;;;;;;5054002;28;20470;-62
2023/01/29 12:23:26;;;;;;;33.30;25.50;;;4.50;99.90;;;;;;5022943;28;20475;-62
2023/01/29 12:26:02;;;;;;;38.07;28.13;;;4.50;99.90;;;;;;5027189;28;21012;-62
2023/01/29 12:28:54;;;;;;;36.10;26.63;;;4.60;99.90;;;;;;5027780;28;20473;-62
2023/01/29 12:31:31;;;;;;;35.90;26.20;;;4.70;99.90;;;;;;5011457;28;20464;-62
2023/01/29 12:34:08;;;;;;;37.07;26.50;;;4.60;99.90;;;;;;5028270;28;20462;-63
2023/01/29 12:36:43;;;;;;;33.33;25.03;;;4.70;99.90;;;;;;5029656;28;20489;-62
2023/01/29 12:39:19;;;;;;;33.30;25.27;;;4.60;99.90;;;;;;5028016;28;20473;-62
2023/01/29 12:41:55;;;;;;;35.87;26.57;;;4.70;99.90;;;;;;5029622;28;20980;-62
2023/01/29 12:44:33;;;;;;;33.07;25.83;;;4.60;99.90;;;;;;5026359;28;20858;-62
2023/01/29 12:47:08;;;;;;;36.50;27.60;;;4.70;99.90;;;;;;5027994;28;21050;-62
2023/01/29 12:49:41;;;;;;;35.13;27.57;;;4.60;99.90;;;;;;5029105;28;20480;-62
2023/01/29 12:52:17;;;;;;;35.90;27.17;;;4.70;99.90;;;;;;5028889;28;20483;-62
2023/01/29 12:54:52;;;;;;;36.27;27.73;;;4.60;99.90;;;;;;5028326;28;20527;-62
2023/01/29 12:57:25;;;;;;;35.00;26.07;;;4.60;99.90;;;;;;5029134;28;20471;-61
2023/01/29 13:00:03;;;;;;;31.37;24.93;;;4.60;99.90;;;;;;5028199;28;20470;-62
2023/01/29 13:02:38;;;;;;;35.13;26.33;;;4.60;99.90;;;;;;5026658;28;20586;-62
2023/01/29 13:05:20;;;;;;;34.37;26.23;;;4.60;99.90;;;;;;5028480;28;20489;-62
2023/01/29 13:07:57;;;;;;;34.63;26.40;;;4.60;99.90;;;;;;5029303;28;20829;-62
2023/01/29 13:10:57;;;;;;;34.77;26.77;;;4.60;99.90;;;;;;5029035;28;20462;-62
2023/01/29 13:13:31;;;;;;;32.63;26.13;;;4.60;99.90;;;;;;5026513;28;20985;-61
2023/01/29 13:16:07;;;;;;;35.40;27.50;;;4.60;99.90;;;;;;5033010;28;20492;-61
2023/01/29 13:18:46;;;;;;;35.10;25.83;;;4.60;99.90;;;;;;5032970;28;20478;-62
2023/01/29 13:21:19;;;;;;;36.37;26.80;;;4.60;99.90;;;;;;5033420;28;20478;-61
2023/01/29 13:23:50;;;;;;;35.57;27.20;;;4.70;99.90;;;;;;5037411;28;20471;-62
2023/01/29 13:26:19;;;;;;;35.57;27.03;;;4.70;99.90;;;;;;5037614;28;20485;-62
2023/01/29 13:28:48;;;;;;;34.83;26.70;;;4.70;99.90;;;;;;5037644;28;20459;-62